createdAt,value
2018-11-06T00:16:43.769Z,7.30
2018-11-06T00:37:22.260Z,7.18
2018-11-06T00:58:01.482Z,6.91
2018-11-06T01:18:37.681Z,6.70
2018-11-06T01:39:13.873Z,6.60
2018-11-06T01:59:48.238Z,6.51
2018-11-06T02:20:25.440Z,6.40
2018-11-06T02:41:02.733Z,6.41
2018-11-06T03:01:41.927Z,6.47
2018-11-06T03:22:20.172Z,6.45
2018-11-06T03:42:57.179Z,6.64
2018-11-06T04:03:34.606Z,6.76
2018-11-06T04:24:14.486Z,6.91
2018-11-06T04:44:50.277Z,6.97
2018-11-06T05:05:26.462Z,6.91
2018-11-06T05:26:02.746Z,6.78
2018-11-06T05:46:40.905Z,6.81
2018-11-06T06:07:21.290Z,7.05
2018-11-06T06:27:57.382Z,7.24
2018-11-06T06:48:32.766Z,7.37
2018-11-06T07:09:11.819Z,7.63
2018-11-06T07:29:50.880Z,7.92
2018-11-06T07:50:31.658Z,8.19
2018-11-06T08:11:10.642Z,8.50
2018-11-06T08:31:51.281Z,8.72
2018-11-06T08:52:26.309Z,9.12
2018-11-06T09:13:03.316Z,9.55
2018-11-06T09:33:40.742Z,9.83
2018-11-06T09:54:15.710Z,10.20
2018-11-06T10:14:52.309Z,10.53
2018-11-06T10:35:28.577Z,10.93
2018-11-06T10:56:06.746Z,11.33
2018-11-06T11:16:43.757Z,11.51
2018-11-06T11:37:17.908Z,11.59
2018-11-06T11:57:54.507Z,11.76
2018-11-06T12:18:32.750Z,11.96
2018-11-06T12:39:10.994Z,12.29
2018-11-06T12:59:47.325Z,12.54
2018-11-06T13:20:26.254Z,12.66
2018-11-06T13:41:01.827Z,12.70
2018-11-06T14:01:37.050Z,12.73
2018-11-06T14:22:13.198Z,12.66
2018-11-06T14:42:49.465Z,12.41
2018-11-06T15:03:24.347Z,12.23
2018-11-06T15:24:02.997Z,12.11
2018-11-06T15:44:41.241Z,11.70
2018-11-06T16:05:19.488Z,11.45
2018-11-06T16:25:53.628Z,11.00
2018-11-06T16:46:32.693Z,10.66
2018-11-06T17:07:08.283Z,10.30
2018-11-06T17:27:45.487Z,10.08
2018-11-06T17:48:21.683Z,9.94
2018-11-06T18:08:58.781Z,9.76
2018-11-06T18:29:36.122Z,9.71
2018-11-06T18:50:19.271Z,9.59
2018-11-06T19:10:58.886Z,9.55
2018-11-06T19:31:36.990Z,9.34
2018-11-06T19:52:15.240Z,9.20
2018-11-06T20:12:51.601Z,9.13
2018-11-06T20:33:29.870Z,8.96
2018-11-06T20:54:14.061Z,8.91
2018-11-06T21:14:54.354Z,8.75
2018-11-06T21:35:31.358Z,8.66
2018-11-06T21:56:10.833Z,8.70
2018-11-06T22:16:49.257Z,8.75
2018-11-06T22:37:26.122Z,8.70
2018-11-06T22:58:04.330Z,8.65
2018-11-06T23:18:44.620Z,8.63
2018-11-06T23:39:22.879Z,8.52
